Time;durP1;ratioP1;P1;durP2;ratioP2;P2;SDS_P1;SDS_P2;PMS_P1;PMS_P2;Temp;Humidity;BMP_temperature;BMP_pressure;BME280_temperature;BME280_humidity;BME280_pressure;Samples;Min_cycle;Max_cycle;Signal;HPM_P1;HPM_P2
2022/08/21 00:01:25;;;;;;;8.70;2.63;;;16.20;99.90;;;;;;5023792;28;20133;-69
2022/08/21 00:03:51;;;;;;;7.20;2.80;;;16.10;99.90;;;;;;5018939;28;20053;-69
2022/08/21 00:06:17;;;;;;;4.40;2.45;;;16.00;99.90;;;;;;5028145;28;20071;-69
2022/08/21 00:08:42;;;;;;;;;;;16.00;99.90;;;;;;5019711;28;20406;-69
2022/08/21 00:11:08;;;;;;;6.75;2.92;;;16.10;99.90;;;;;;5019363;28;19945;-69
2022/08/21 00:13:35;;;;;;;6.47;3.50;;;16.00;99.90;;;;;;4999371;28;20661;-69
2022/08/21 00:16:02;;;;;;;5.72;3.30;;;16.00;99.90;;;;;;4989505;28;20038;-69
2022/08/21 00:18:28;;;;;;;7.75;3.60;;;16.00;99.90;;;;;;5003607;28;20052;-69
2022/08/21 00:20:54;;;;;;;6.50;3.40;;;15.90;99.90;;;;;;4997163;28;20033;-69
2022/08/21 00:23:20;;;;;;;11.15;4.30;;;15.90;99.90;;;;;;5021766;28;20068;-69
2022/08/21 00:25:46;;;;;;;8.75;3.05;;;15.90;99.90;;;;;;5000954;28;20063;-69
2022/08/21 00:28:12;;;;;;;6.25;3.50;;;15.80;99.90;;;;;;5014553;28;20060;-69
2022/08/21 00:30:39;;;;;;;6.18;3.50;;;15.80;99.90;;;;;;5022030;28;20044;-69
2022/08/21 00:33:06;;;;;;;;;;;15.80;99.90;;;;;;5019458;28;20049;-69
2022/08/21 00:35:34;;;;;;;6.13;3.08;;;15.80;99.90;;;;;;5020361;28;20201;-69
2022/08/21 00:38:00;;;;;;;4.75;2.92;;;15.70;99.90;;;;;;5017802;28;20045;-69
2022/08/21 00:40:39;;;;;;;7.50;3.60;;;15.70;99.90;;;;;;5020717;28;20037;-69
2022/08/21 00:43:08;;;;;;;7.55;2.88;;;15.70;99.90;;;;;;5023528;28;20110;-69
2022/08/21 00:45:34;;;;;;;7.63;2.70;;;15.70;99.90;;;;;;5014869;28;20314;-69
2022/08/21 00:48:00;;;;;;;4.65;3.08;;;15.70;99.90;;;;;;5022436;28;20329;-69
2022/08/21 00:50:31;;;;;;;6.18;3.13;;;15.70;99.90;;;;;;5005466;28;20557;-69
2022/08/21 00:52:57;;;;;;;9.05;3.60;;;15.70;99.90;;;;;;5000305;28;20094;-70
2022/08/21 00:55:24;;;;;;;;;;;15.70;99.90;;;;;;5006238;28;20071;-69
2022/08/21 00:57:56;;;;;;;7.00;3.30;;;15.70;99.90;;;;;;4994972;28;20335;-69
2022/08/21 01:00:28;;;;;;;9.55;3.65;;;15.70;99.90;;;;;;5001034;28;20126;-69
2022/08/21 01:02:54;;;;;;;10.25;3.80;;;15.70;99.90;;;;;;5020804;28;20379;-69
2022/08/21 01:05:19;;;;;;;6.50;2.78;;;15.60;99.90;;;;;;5015669;28;20046;-69
2022/08/21 01:07:45;;;;;;;7.53;3.38;;;15.60;99.90;;;;;;4998526;28;20049;-70
2022/08/21 01:10:12;;;;;;;9.90;3.65;;;15.60;99.90;;;;;;5014847;28;20528;-70
2022/08/21 01:12:39;;;;;;;5.50;3.55;;;15.60;99.90;;;;;;4988183;28;20272;-69
2022/08/21 01:15:06;;;;;;;10.27;3.72;;;15.60;99.90;;;;;;5019821;28;20049;-69
2022/08/21 01:17:32;;;;;;;8.98;3.17;;;15.60;99.90;;;;;;5015329;28;20053;-70
2022/08/21 01:20:00;;;;;;;5.25;3.17;;;15.60;99.90;;;;;;5021431;28;20522;-69
2022/08/21 01:22:26;;;;;;;5.68;3.50;;;15.50;99.90;;;;;;5027546;28;20148;-70
2022/08/21 01:24:52;;;;;;;7.28;3.28;;;15.50;99.90;;;;;;5004763;28;20053;-69
2022/08/21 01:27:18;;;;;;;5.75;3.70;;;15.50;99.90;;;;;;5026126;28;20045;-69
2022/08/21 01:30:01;;;;;;;6.35;3.78;;;15.50;99.90;;;;;;5020874;28;20123;-69
2022/08/21 01:32:27;;;;;;;9.93;2.90;;;15.50;99.90;;;;;;5003041;28;20081;-69
2022/08/21 01:34:53;;;;;;;6.57;3.60;;;15.50;99.90;;;;;;4997334;28;20540;-69
2022/08/21 01:37:21;;;;;;;7.28;3.30;;;15.50;99.90;;;;;;5017162;28;20217;-69
2022/08/21 01:39:47;;;;;;;6.60;3.35;;;15.50;99.90;;;;;;5007516;28;20045;-69
2022/08/21 01:42:13;;;;;;;5.43;3.00;;;15.50;99.90;;;;;;5018714;28;20038;-69
2022/08/21 01:44:39;;;;;;;9.98;3.60;;;15.40;99.90;;;;;;5019252;28;20056;-69
2022/08/21 01:47:08;;;;;;;6.88;3.30;;;15.50;99.90;;;;;;5018945;28;20042;-69
2022/08/21 01:49:35;;;;;;;7.50;3.38;;;15.50;99.90;;;;;;5020419;28;20056;-69
2022/08/21 01:52:01;;;;;;;9.25;3.83;;;15.50;99.90;;;;;;5019397;28;20411;-69
2022/08/21 01:54:27;;;;;;;8.48;3.63;;;15.50;99.90;;;;;;5010089;28;20102;-70
2022/08/21 01:56:54;;;;;;;5.32;3.05;;;15.40;99.90;;;;;;4999319;28;20053;-69
2022/08/21 01:59:22;;;;;;;7.28;3.63;;;15.40;99.90;;;;;;5000590;28;20096;-69
2022/08/21 02:01:48;;;;;;;7.72;3.00;;;15.50;99.90;;;;;;5004496;28;20154;-69
2022/08/21 02:04:13;;;;;;;7.13;3.72;;;15.50;99.90;;;;;;5006835;28;20278;-69
2022/08/21 02:06:39;;;;;;;9.25;3.25;;;15.50;99.90;;;;;;5001487;28;20534;-69
2022/08/21 02:09:07;;;;;;;9.38;3.45;;;15.50;99.90;;;;;;5022854;28;20346;-70
2022/08/21 02:11:33;;;;;;;7.07;3.53;;;15.50;99.90;;;;;;4998203;28;20405;-70
2022/08/21 02:13:58;;;;;;;7.60;3.88;;;15.50;99.90;;;;;;5006044;28;20044;-69
2022/08/21 02:16:24;;;;;;;8.02;3.30;;;15.50;99.90;;;;;;5016569;28;20537;-69
2022/08/21 02:18:50;;;;;;;6.55;3.50;;;15.50;99.90;;;;;;5017385;28;20132;-69
2022/08/21 02:21:16;;;;;;;6.30;3.30;;;15.50;99.90;;;;;;5002688;28;20046;-69
2022/08/21 02:23:42;;;;;;;9.80;3.50;;;15.60;99.90;;;;;;5003984;28;20104;-69
2022/08/21 02:26:08;;;;;;;6.53;3.15;;;15.50;99.90;;;;;;5016196;28;20530;-69
2022/08/21 02:28:35;;;;;;;5.25;2.78;;;15.50;99.90;;;;;;4999366;28;20068;-69
2022/08/21 02:31:02;;;;;;;4.97;3.33;;;15.60;99.90;;;;;;4992983;28;20037;-70
2022/08/21 02:33:28;;;;;;;7.97;3.53;;;15.60;99.90;;;;;;5024614;28;20045;-69
2022/08/21 02:35:55;;;;;;;6.93;3.05;;;15.60;99.90;;;;;;5023753;28;20451;-70
2022/08/21 02:38:25;;;;;;;5.20;2.97;;;15.60;99.90;;;;;;4996845;28;20487;-69
2022/08/21 02:40:51;;;;;;;5.82;2.90;;;15.60;99.90;;;;;;5006401;28;20165;-70
2022/08/21 02:43:19;;;;;;;6.63;2.97;;;15.70;99.90;;;;;;5017615;28;20493;-70
2022/08/21 02:45:45;;;;;;;7.63;2.65;;;15.60;99.90;;;;;;5024285;28;20102;-70
2022/08/21 02:48:14;;;;;;;6.43;3.35;;;15.70;99.90;;;;;;5017357;28;20116;-70
2022/08/21 02:50:42;;;;;;;7.07;3.45;;;15.60;99.90;;;;;;5003330;28;20068;-70
2022/08/21 02:53:10;;;;;;;5.30;3.47;;;15.60;99.90;;;;;;5006689;28;20033;-69
2022/08/21 02:55:37;;;;;;;7.50;3.00;;;15.60;99.90;;;;;;5024639;28;20391;-70
2022/08/21 02:58:06;;;;;;;8.98;3.35;;;15.70;99.90;;;;;;5006575;28;20240;-70
2022/08/21 03:00:34;;;;;;;5.22;2.70;;;15.60;99.90;;;;;;5015118;28;20073;-69
2022/08/21 03:03:00;;;;;;;6.07;2.83;;;15.70;99.90;;;;;;5017891;28;20042;-69
2022/08/21 03:05:27;;;;;;;6.85;2.95;;;15.70;99.90;;;;;;5002821;28;20566;-69
2022/08/21 03:07:54;;;;;;;6.07;2.97;;;15.70;99.90;;;;;;5002891;28;20049;-70
2022/08/21 03:10:21;;;;;;;;;;;15.70;99.90;;;;;;5017541;28;20550;-69
2022/08/21 03:12:47;;;;;;;6.57;3.13;;;15.60;99.90;;;;;;5028787;28;20259;-69
2022/08/21 03:15:20;;;;;;;9.00;3.10;;;15.70;99.90;;;;;;5030143;28;20519;-69
2022/08/21 03:17:47;;;;;;;6.25;3.00;;;15.60;99.90;;;;;;5023450;28;20029;-69
2022/08/21 03:20:15;;;;;;;5.53;2.70;;;15.60;99.90;;;;;;5025704;28;20087;-69
2022/08/21 03:22:42;;;;;;;6.30;3.42;;;15.60;99.90;;;;;;5006802;28;20253;-69
2022/08/21 03:25:08;;;;;;;;;;;15.70;99.90;;;;;;5024352;28;20095;-69
2022/08/21 03:27:34;;;;;;;6.95;3.13;;;15.60;99.90;;;;;;4993328;28;19917;-69
2022/08/21 03:30:01;;;;;;;7.38;2.97;;;15.50;99.90;;;;;;5010937;28;20085;-69
2022/08/21 03:32:27;;;;;;;7.55;3.10;;;15.60;99.90;;;;;;5003604;28;20067;-69
2022/08/21 03:34:53;;;;;;;6.32;3.38;;;15.60;99.90;;;;;;5003118;28;20063;-69
2022/08/21 03:37:18;;;;;;;6.07;2.80;;;15.50;99.90;;;;;;5024077;28;20512;-70
2022/08/21 03:39:44;;;;;;;7.55;2.80;;;15.50;99.90;;;;;;4996442;28;20509;-69
2022/08/21 03:42:10;;;;;;;7.22;2.70;;;15.50;99.90;;;;;;5016389;28;20065;-69
2022/08/21 03:44:37;;;;;;;8.88;3.50;;;15.50;99.90;;;;;;5001916;28;20056;-69
2022/08/21 03:47:03;;;;;;;9.27;3.28;;;15.50;99.90;;;;;;4998158;28;20462;-70
2022/08/21 03:49:29;;;;;;;;;;;15.50;99.90;;;;;;5003214;28;20050;-69
2022/08/21 03:51:54;;;;;;;4.80;3.03;;;15.40;99.90;;;;;;5001180;28;20334;-70
2022/08/21 03:54:20;;;;;;;6.10;2.97;;;15.40;99.90;;;;;;5024049;28;20037;-70
2022/08/21 03:56:47;;;;;;;9.00;3.55;;;15.40;99.90;;;;;;5014261;23;20088;-72
2022/08/21 03:59:13;;;;;;;;;;;15.40;99.90;;;;;;5027182;28;20283;-72
2022/08/21 04:01:39;;;;;;;7.28;3.05;;;15.40;99.90;;;;;;5031933;28;20173;-72
2022/08/21 04:04:05;;;;;;;5.68;3.35;;;15.40;99.90;;;;;;5021410;28;20045;-72
2022/08/21 04:06:31;;;;;;;6.22;3.03;;;15.40;99.90;;;;;;5027807;28;20052;-72
2022/08/21 04:08:57;;;;;;;8.18;3.58;;;15.30;99.90;;;;;;5045606;28;20064;-72
2022/08/21 04:11:23;;;;;;;5.57;3.00;;;15.30;99.90;;;;;;5038371;28;20075;-72
2022/08/21 04:13:48;;;;;;;8.32;3.88;;;15.30;99.90;;;;;;5014775;28;20428;-72
2022/08/21 04:16:14;;;;;;;7.55;3.67;;;15.30;99.90;;;;;;5034851;28;20519;-72
2022/08/21 04:18:40;;;;;;;5.90;3.05;;;15.30;99.90;;;;;;5035740;28;20032;-72
2022/08/21 04:21:09;;;;;;;9.40;3.63;;;15.30;99.90;;;;;;5018964;28;20103;-72
2022/08/21 04:23:36;;;;;;;7.30;3.53;;;15.30;99.90;;;;;;5023021;28;20178;-72
2022/08/21 04:26:01;;;;;;;;;;;15.30;99.90;;;;;;5014829;28;20037;-72
2022/08/21 04:28:28;;;;;;;6.60;3.03;;;15.30;99.90;;;;;;5021246;28;19958;-72
2022/08/21 04:30:54;;;;;;;7.25;3.10;;;15.30;99.90;;;;;;5037384;28;20313;-72
2022/08/21 04:33:21;;;;;;;8.38;3.63;;;15.30;99.90;;;;;;5009633;28;20103;-72
2022/08/21 04:35:47;;;;;;;9.50;3.40;;;15.30;99.90;;;;;;5023464;28;20446;-72
2022/08/21 04:38:13;;;;;;;;;;;15.30;99.90;;;;;;5024968;28;20068;-71
2022/08/21 04:40:38;;;;;;;6.57;3.05;;;15.30;99.90;;;;;;5020779;28;20353;-72
2022/08/21 04:43:08;;;;;;;9.63;3.45;;;15.30;99.90;;;;;;5034251;28;20383;-72
2022/08/21 04:45:42;;;;;;;8.52;3.33;;;15.30;99.90;;;;;;5039420;28;20071;-72
2022/08/21 04:48:10;;;;;;;9.27;3.35;;;15.40;99.90;;;;;;5021516;28;20127;-72
2022/08/21 04:50:36;;;;;;;6.68;3.17;;;15.40;99.90;;;;;;5025673;28;20062;-72
2022/08/21 04:53:03;;;;;;;9.48;3.83;;;15.40;99.90;;;;;;5007364;28;20037;-72
2022/08/21 04:55:30;;;;;;;5.05;3.00;;;15.40;99.90;;;;;;5036918;28;20158;-72
2022/08/21 04:57:56;;;;;;;6.22;3.17;;;15.40;99.90;;;;;;5030266;28;20610;-71
2022/08/21 05:00:24;;;;;;;;;;;15.40;99.90;;;;;;5016335;28;20155;-71
2022/08/21 05:02:54;;;;;;;;;;;15.40;99.90;;;;;;5021696;28;19956;-71
2022/08/21 05:05:20;;;;;;;8.13;3.65;;;15.40;99.90;;;;;;5041206;28;19966;-72
2022/08/21 05:07:46;;;;;;;5.90;3.17;;;15.50;99.90;;;;;;5041140;28;20045;-72
2022/08/21 05:10:12;;;;;;;;;;;15.50;99.90;;;;;;5024820;28;20072;-71
2022/08/21 05:12:39;;;;;;;8.43;3.47;;;15.50;99.90;;;;;;5036576;28;19923;-72
2022/08/21 05:15:05;;;;;;;6.90;3.20;;;15.50;99.90;;;;;;5038179;28;20045;-72
2022/08/21 05:17:30;;;;;;;7.30;2.90;;;15.60;99.90;;;;;;5018228;28;20054;-72
2022/08/21 05:19:56;;;;;;;5.93;3.25;;;15.60;99.90;;;;;;5039039;28;20542;-72
2022/08/21 05:22:24;;;;;;;5.82;3.20;;;15.60;99.90;;;;;;5040482;28;20576;-72
2022/08/21 05:24:50;;;;;;;6.93;2.85;;;15.60;99.90;;;;;;5040330;28;20045;-72
2022/08/21 05:27:16;;;;;;;5.57;3.00;;;15.70;99.90;;;;;;5038781;28;20041;-71
2022/08/21 05:29:42;;;;;;;8.85;3.13;;;15.70;99.90;;;;;;5016976;28;20135;-72
2022/08/21 05:32:10;;;;;;;8.77;3.20;;;15.70;99.90;;;;;;5017726;28;20045;-71
2022/08/21 05:34:36;;;;;;;9.95;3.00;;;15.80;99.90;;;;;;5020872;28;20494;-72
2022/08/21 05:37:02;;;;;;;6.25;2.70;;;15.80;99.90;;;;;;5041231;28;20116;-72
2022/08/21 05:39:28;;;;;;;6.30;2.75;;;15.80;99.90;;;;;;5024289;28;20418;-71
2022/08/21 05:41:53;;;;;;;7.20;3.25;;;15.90;99.90;;;;;;5020620;28;20287;-71
2022/08/21 05:44:19;;;;;;;6.00;3.38;;;15.80;99.90;;;;;;5033210;28;20063;-71
2022/08/21 05:46:45;;;;;;;9.55;3.20;;;15.90;99.90;;;;;;5024335;28;20055;-72
2022/08/21 05:49:11;;;;;;;7.72;2.63;;;16.00;99.90;;;;;;5043252;28;20051;-72
2022/08/21 05:51:40;;;;;;;7.50;3.17;;;16.00;99.90;;;;;;5022179;28;20128;-72
2022/08/21 05:54:05;;;;;;;6.78;2.53;;;16.00;99.90;;;;;;5022187;28;20048;-72
2022/08/21 05:56:31;;;;;;;10.20;3.10;;;16.10;99.90;;;;;;5033318;28;20032;-72
2022/08/21 05:58:57;;;;;;;5.70;2.78;;;16.10;99.90;;;;;;4994261;28;20517;-72
2022/08/21 06:01:23;;;;;;;5.30;2.88;;;16.10;99.90;;;;;;5023702;28;20128;-72
2022/08/21 06:03:49;;;;;;;6.82;2.70;;;16.20;99.90;;;;;;5037460;28;20081;-71
2022/08/21 06:06:15;;;;;;;4.63;2.67;;;16.20;99.90;;;;;;5017707;28;20498;-72
2022/08/21 06:08:41;;;;;;;;;;;16.30;99.90;;;;;;5020759;28;20124;-72
2022/08/21 06:11:07;;;;;;;7.03;2.92;;;16.30;99.90;;;;;;5026768;28;20007;-72
2022/08/21 06:13:33;;;;;;;;;;;16.30;99.90;;;;;;5029175;28;20047;-71
2022/08/21 06:16:08;;;;;;;7.80;2.63;;;16.40;99.90;;;;;;5016083;28;19917;-72
2022/08/21 06:18:35;;;;;;;5.70;2.80;;;16.40;99.90;;;;;;5020886;28;20438;-72
2022/08/21 06:21:01;;;;;;;7.40;2.53;;;16.50;99.90;;;;;;5039029;28;20068;-72
2022/08/21 06:23:26;;;;;;;6.97;2.47;;;16.50;99.90;;;;;;5027035;28;20403;-72
2022/08/21 06:25:52;;;;;;;5.95;2.55;;;16.60;99.90;;;;;;5020906;28;20056;-72
2022/08/21 06:28:18;;;;;;;7.60;2.70;;;16.60;99.90;;;;;;5044975;28;20192;-71
2022/08/21 06:30:43;;;;;;;6.13;2.63;;;16.70;99.90;;;;;;5022267;28;20239;-72
2022/08/21 06:33:09;;;;;;;4.83;2.50;;;16.70;99.90;;;;;;5044224;28;20361;-71
2022/08/21 06:35:35;;;;;;;8.95;2.78;;;16.80;99.90;;;;;;5024420;28;20290;-71
2022/08/21 06:38:01;;;;;;;;;;;16.90;99.90;;;;;;5039441;28;20040;-71
2022/08/21 06:40:28;;;;;;;5.35;2.33;;;16.90;99.90;;;;;;5028117;28;19916;-72
2022/08/21 06:42:54;;;;;;;3.72;1.98;;;17.00;99.90;;;;;;5045467;28;20036;-72
2022/08/21 06:45:21;;;;;;;4.93;2.20;;;17.10;99.90;;;;;;5045711;28;20044;-72
2022/08/21 06:47:46;;;;;;;5.70;2.58;;;17.20;99.90;;;;;;5031765;28;20041;-72
2022/08/21 06:50:12;;;;;;;5.70;2.30;;;17.30;99.90;;;;;;5026292;28;20487;-72
2022/08/21 06:52:39;;;;;;;5.10;2.05;;;17.30;99.90;;;;;;5039812;28;20045;-72
2022/08/21 06:55:07;;;;;;;5.22;1.85;;;17.40;99.90;;;;;;5042524;28;20533;-72
2022/08/21 06:57:33;;;;;;;5.38;2.15;;;17.50;99.90;;;;;;5022589;28;20498;-72
2022/08/21 06:59:58;;;;;;;4.53;1.83;;;17.50;99.90;;;;;;5045480;28;20314;-71
2022/08/21 07:02:24;;;;;;;9.40;2.53;;;17.60;99.90;;;;;;5019317;28;20084;-71
2022/08/21 07:04:50;;;;;;;4.45;1.90;;;17.60;99.90;;;;;;5029690;28;20410;-72
2022/08/21 07:07:16;;;;;;;;;;;17.60;99.90;;;;;;5031465;28;20056;-71
2022/08/21 07:09:43;;;;;;;8.10;2.90;;;17.70;99.90;;;;;;5042453;28;19917;-71
2022/08/21 07:12:09;;;;;;;3.72;1.48;;;17.70;99.90;;;;;;5041170;28;20041;-71
2022/08/21 07:14:35;;;;;;;8.98;2.13;;;17.80;99.90;;;;;;5011304;28;20045;-71
2022/08/21 07:17:01;;;;;;;7.05;2.20;;;17.80;99.90;;;;;;5035146;28;20055;-71
2022/08/21 07:19:27;;;;;;;6.35;2.22;;;17.90;99.90;;;;;;5024639;28;20048;-72
2022/08/21 07:21:58;;;;;;;5.00;1.83;;;17.90;99.90;;;;;;5026586;28;20498;-71
2022/08/21 07:24:24;;;;;;;6.55;2.03;;;18.00;99.90;;;;;;5038492;28;20048;-71
2022/08/21 07:26:50;;;;;;;5.82;1.95;;;18.00;99.90;;;;;;5029384;28;20294;-72
2022/08/21 07:29:15;;;;;;;14.60;2.55;;;18.10;99.90;;;;;;5038999;28;20045;-71
2022/08/21 07:31:41;;;;;;;8.20;1.90;;;18.20;99.90;;;;;;5035817;28;20144;-71
2022/08/21 07:34:08;;;;;;;8.57;1.98;;;18.30;99.90;;;;;;5023255;28;20058;-71
2022/08/21 07:36:33;;;;;;;4.78;2.20;;;18.30;99.90;;;;;;5019138;28;20119;-72
2022/08/21 07:38:59;;;;;;;5.68;2.33;;;18.30;99.90;;;;;;5040715;28;20057;-71
2022/08/21 07:41:28;;;;;;;4.32;1.90;;;18.40;99.90;;;;;;5032653;28;20252;-72
2022/08/21 07:43:54;;;;;;;6.03;2.40;;;18.40;99.90;;;;;;5022796;28;20041;-72
2022/08/21 07:46:20;;;;;;;4.07;1.85;;;18.50;99.90;;;;;;5008422;28;20379;-71
2022/08/21 07:48:46;;;;;;;7.25;2.20;;;18.50;99.90;;;;;;5040987;28;20040;-72
2022/08/21 07:51:13;;;;;;;8.13;1.88;;;18.60;99.90;;;;;;5021686;28;20750;-71
2022/08/21 07:53:39;;;;;;;5.28;1.85;;;18.70;99.90;;;;;;5024289;28;20055;-72
2022/08/21 07:56:07;;;;;;;4.25;1.98;;;18.70;99.90;;;;;;5040697;28;20112;-71
2022/08/21 07:58:34;;;;;;;8.20;2.15;;;18.80;99.90;;;;;;5021156;28;20500;-71
2022/08/21 08:00:59;;;;;;;;;;;18.90;99.90;;;;;;5022480;28;20049;-72
2022/08/21 08:03:27;;;;;;;6.15;1.90;;;19.00;99.90;;;;;;5019471;28;19917;-72
2022/08/21 08:05:53;;;;;;;3.92;1.63;;;19.00;99.90;;;;;;5024831;28;20486;-72
2022/08/21 08:08:19;;;;;;;4.07;1.63;;;19.10;99.90;;;;;;5051048;28;20041;-72
2022/08/21 08:10:45;;;;;;;4.88;1.90;;;19.10;99.90;;;;;;5029852;28;20044;-71
2022/08/21 08:13:10;;;;;;;8.00;2.55;;;19.20;99.90;;;;;;5024895;28;20083;-72
2022/08/21 08:15:36;;;;;;;8.48;2.47;;;19.30;99.90;;;;;;5019312;28;20072;-72
2022/08/21 08:18:02;;;;;;;7.43;1.60;;;19.30;99.90;;;;;;5035106;28;20128;-71
2022/08/21 08:20:29;;;;;;;9.15;3.22;;;19.40;99.90;;;;;;5019368;28;20164;-72
2022/08/21 08:22:55;;;;;;;;;;;19.50;99.90;;;;;;5014954;28;20041;-72
2022/08/21 08:25:22;;;;;;;11.82;3.85;;;19.60;99.90;;;;;;5024847;28;19922;-71
2022/08/21 08:27:48;;;;;;;6.13;2.08;;;19.70;99.90;;;;;;5024096;28;20045;-71
2022/08/21 08:30:15;;;;;;;;;;;19.70;99.90;;;;;;5037117;28;20041;-71
2022/08/21 08:32:45;;;;;;;7.75;1.98;;;19.80;99.90;;;;;;5022597;28;20501;-72
2022/08/21 08:35:11;;;;;;;6.93;1.90;;;19.80;99.90;;;;;;5035830;28;20037;-72
2022/08/21 08:37:39;;;;;;;5.07;1.90;;;19.90;99.90;;;;;;5033214;28;20259;-72
2022/08/21 08:40:07;;;;;;;8.75;1.67;;;20.00;99.90;;;;;;5016455;28;20099;-71
2022/08/21 08:42:35;;;;;;;6.50;2.08;;;20.10;99.90;;;;;;5040996;28;20041;-71
2022/08/21 08:45:10;;;;;;;11.95;2.50;;;20.20;99.90;;;;;;5039883;28;20048;-72
2022/08/21 08:47:40;;;;;;;6.93;2.33;;;20.30;99.90;;;;;;5036177;28;20506;-70
2022/08/21 08:50:10;;;;;;;7.63;1.85;;;20.30;99.90;;;;;;5007870;28;20419;-72
2022/08/21 08:52:42;;;;;;;6.82;2.20;;;20.40;99.90;;;;;;5021022;28;20166;-72
2022/08/21 08:55:18;;;;;;;6.60;2.00;;;20.40;99.90;;;;;;5028491;28;20076;-72
2022/08/21 08:57:46;;;;;;;9.65;2.03;;;20.40;99.90;;;;;;5020601;28;20045;-71
2022/08/21 09:00:15;;;;;;;7.40;1.70;;;20.50;99.90;;;;;;5039357;28;20421;-72
2022/08/21 09:02:43;;;;;;;6.57;2.05;;;20.60;99.90;;;;;;5038367;28;20085;-72
2022/08/21 09:05:26;;;;;;;6.95;2.08;;;20.60;99.90;;;;;;5038753;28;20456;-71
2022/08/21 09:08:25;;;;;;;4.00;1.52;;;20.70;99.90;;;;;;5019707;28;20077;-72
2022/08/21 09:11:06;;;;;;;8.77;2.22;;;20.70;99.90;;;;;;5030384;28;20452;-72
2022/08/21 09:13:59;;;;;;;3.95;1.33;;;21.00;99.90;;;;;;5024460;28;20491;-71
2022/08/21 09:16:49;;;;;;;4.18;1.38;;;21.00;99.90;;;;;;5015585;28;20128;-71
2022/08/21 09:19:27;;;;;;;5.53;1.38;;;21.00;99.90;;;;;;5018260;28;20521;-72
2022/08/21 09:21:55;;;;;;;7.00;1.45;;;21.10;99.90;;;;;;5014765;28;20033;-71
2022/08/21 09:24:47;;;;;;;7.82;1.80;;;21.20;99.90;;;;;;5021348;28;20132;-72
2022/08/21 09:27:17;;;;;;;5.00;1.60;;;21.40;99.90;;;;;;5038245;28;20049;-72
2022/08/21 09:29:47;;;;;;;6.43;1.63;;;21.40;99.90;;;;;;5035251;28;20492;-72
2022/08/21 09:32:22;;;;;;;5.00;1.48;;;21.40;99.90;;;;;;5016308;28;20049;-72
2022/08/21 09:35:05;;;;;;;3.60;1.50;;;21.60;99.90;;;;;;5020684;28;20233;-72
2022/08/21 09:37:34;;;;;;;3.35;1.40;;;21.70;99.90;;;;;;5021559;28;20128;-72
2022/08/21 09:40:00;;;;;;;6.07;1.20;;;21.80;99.90;;;;;;5039363;28;20231;-72
2022/08/21 09:42:31;;;;;;;4.93;1.42;;;21.80;99.90;;;;;;5016221;28;20450;-72
2022/08/21 09:45:09;;;;;;;7.28;1.63;;;21.70;99.90;;;;;;5035494;28;20566;-72
2022/08/21 09:47:35;;;;;;;3.92;1.25;;;21.80;99.90;;;;;;5022136;28;20044;-72
2022/08/21 09:50:11;;;;;;;;;;;21.80;99.90;;;;;;5004095;28;20044;-71
2022/08/21 09:52:53;;;;;;;8.02;1.70;;;21.80;99.90;;;;;;5024595;28;20001;-72
2022/08/21 09:57:54;;;;;;;3.55;1.58;;;21.80;99.90;;;;;;4996616;28;20098;-71
2022/08/21 10:00:25;;;;;;;;;;;21.80;99.90;;;;;;5002158;28;20063;-71
2022/08/21 10:02:50;;;;;;;2.33;1.20;;;21.60;99.90;;;;;;5013734;28;19988;-71
2022/08/21 10:05:18;;;;;;;;;;;21.60;99.90;;;;;;5019647;28;20085;-71
2022/08/21 10:07:44;;;;;;;4.35;1.40;;;21.60;99.90;;;;;;5014034;28;19925;-71
2022/08/21 10:10:29;;;;;;;;;;;21.60;99.90;;;;;;5000905;28;20203;-71
2022/08/21 10:13:18;;;;;;;5.47;1.38;;;21.50;99.90;;;;;;5021446;28;19917;-71
2022/08/21 10:15:54;;;;;;;4.97;1.70;;;21.50;99.90;;;;;;5002723;28;20053;-71
2022/08/21 10:18:38;;;;;;;12.15;1.83;;;21.40;99.90;;;;;;4985924;28;20045;-71
2022/08/21 10:21:13;;;;;;;6.00;1.60;;;21.30;99.90;;;;;;5014971;28;20123;-71
2022/08/21 10:23:48;;;;;;;5.07;1.88;;;21.30;99.90;;;;;;5000675;28;20117;-71
2022/08/21 10:26:37;;;;;;;3.90;1.25;;;21.40;99.90;;;;;;5020786;28;20065;-71
2022/08/21 10:29:03;;;;;;;3.42;1.50;;;21.40;99.90;;;;;;4997973;28;20050;-71
2022/08/21 10:31:43;;;;;;;;;;;21.60;99.90;;;;;;5019851;28;20428;-71
2022/08/21 10:34:21;;;;;;;6.18;1.50;;;21.60;99.90;;;;;;5017907;28;20326;-72
2022/08/21 10:37:05;;;;;;;10.52;2.60;;;21.80;99.90;;;;;;5023601;28;20540;-71
2022/08/21 10:39:50;;;;;;;5.10;1.40;;;21.70;99.90;;;;;;5016442;28;20566;-71
2022/08/21 10:42:32;;;;;;;5.95;1.27;;;21.80;99.90;;;;;;4995580;28;20136;-71
2022/08/21 10:44:58;;;;;;;4.88;1.60;;;22.00;99.90;;;;;;5021829;28;20037;-71
2022/08/21 10:47:34;;;;;;;;;;;22.30;99.90;;;;;;5009936;28;20118;-71
2022/08/21 10:50:32;;;;;;;6.97;1.50;;;22.40;99.90;;;;;;4992993;28;20254;-71
2022/08/21 10:53:07;;;;;;;;;;;22.30;99.90;;;;;;4998518;28;20407;-71
2022/08/21 10:55:41;;;;;;;4.80;1.50;;;22.20;99.90;;;;;;5004291;28;19952;-71
2022/08/21 10:58:11;;;;;;;7.85;2.03;;;22.00;99.90;;;;;;5021125;28;20498;-71
2022/08/21 11:00:53;;;;;;;5.70;1.92;;;21.90;99.90;;;;;;5024510;28;20183;-71
2022/08/21 11:03:25;;;;;;;3.70;1.27;;;21.90;99.90;;;;;;4981034;28;20168;-71
2022/08/21 11:06:08;;;;;;;4.60;1.15;;;21.90;99.90;;;;;;5018623;28;20479;-71
2022/08/21 11:08:49;;;;;;;5.55;1.65;;;21.90;99.90;;;;;;5016733;28;20029;-71
2022/08/21 11:11:35;;;;;;;3.38;1.10;;;21.90;99.90;;;;;;5021561;28;20051;-71
2022/08/21 11:14:09;;;;;;;3.72;0.93;;;21.90;99.90;;;;;;5022090;28;20079;-72
2022/08/21 11:16:43;;;;;;;4.82;1.30;;;22.00;99.90;;;;;;5001703;28;20487;-71
2022/08/21 11:19:17;;;;;;;6.05;1.70;;;22.20;99.90;;;;;;5005077;28;20060;-71
2022/08/21 11:22:00;;;;;;;2.05;0.95;;;22.30;99.90;;;;;;5003930;28;20041;-71
2022/08/21 11:24:28;;;;;;;5.05;1.40;;;22.30;99.90;;;;;;5017804;28;20034;-71
2022/08/21 11:27:02;;;;;;;6.90;0.93;;;22.30;99.90;;;;;;5021878;28;20052;-71
2022/08/21 11:29:38;;;;;;;3.05;0.80;;;22.20;99.90;;;;;;5021715;28;20049;-71
2022/08/21 11:32:28;;;;;;;5.18;0.93;;;22.10;99.90;;;;;;5007045;28;20102;-71
2022/08/21 11:35:10;;;;;;;2.25;1.15;;;22.00;99.90;;;;;;5015587;28;20571;-71
2022/08/21 11:37:58;;;;;;;3.15;1.00;;;21.90;99.90;;;;;;5005599;28;20344;-70
2022/08/21 11:40:42;;;;;;;6.00;0.90;;;21.90;99.90;;;;;;5012210;28;20387;-71
2022/08/21 11:43:11;;;;;;;2.35;0.77;;;21.90;99.90;;;;;;5019484;28;20520;-71
2022/08/21 11:45:53;;;;;;;7.15;1.23;;;22.00;99.90;;;;;;5024510;28;20033;-71
2022/08/21 11:48:34;;;;;;;6.50;1.00;;;22.20;99.90;;;;;;5004978;28;20102;-71
2022/08/21 11:51:07;;;;;;;3.50;0.80;;;22.50;99.90;;;;;;5021393;28;20060;-71
2022/08/21 11:53:37;;;;;;;2.95;0.88;;;22.80;99.90;;;;;;5019379;28;20117;-71
2022/08/21 11:56:24;;;;;;;2.90;1.00;;;23.00;99.90;;;;;;5024009;28;20077;-71
2022/08/21 11:58:56;;;;;;;;;;;23.10;99.90;;;;;;5019438;28;20049;-71
2022/08/21 12:01:30;;;;;;;2.35;0.70;;;23.00;99.90;;;;;;5000081;28;19916;-71
2022/08/21 12:04:01;;;;;;;7.45;0.90;;;22.90;99.90;;;;;;5003458;28;20041;-72
2022/08/21 12:06:36;;;;;;;3.15;0.90;;;22.80;99.90;;;;;;5019714;28;20041;-73
2022/08/21 12:09:31;;;;;;;1.52;0.73;;;22.80;99.90;;;;;;5009246;28;20037;-73
2022/08/21 12:12:25;;;;;;;2.70;1.17;;;22.70;99.90;;;;;;4985976;28;20530;-72
2022/08/21 12:15:07;;;;;;;2.83;0.70;;;22.60;99.90;;;;;;5015824;28;20510;-72
2022/08/21 12:17:51;;;;;;;4.82;1.17;;;22.60;99.90;;;;;;5010827;28;20502;-73
2022/08/21 12:20:27;;;;;;;4.68;1.15;;;22.50;99.90;;;;;;5029589;28;20419;-74
2022/08/21 12:23:09;;;;;;;2.22;1.00;;;22.50;99.90;;;;;;4992746;28;20609;-72
2022/08/21 12:28:11;;;;;;;4.70;1.33;;;22.40;99.90;;;;;;5007979;28;20045;-70
2022/08/21 12:30:40;;;;;;;2.10;0.82;;;22.40;99.90;;;;;;5001304;28;20192;-71
2022/08/21 12:33:29;;;;;;;3.15;1.17;;;22.50;99.90;;;;;;5026342;28;20115;-70
2022/08/21 12:36:42;;;;;;;2.03;0.68;;;22.60;99.90;;;;;;5029532;28;20037;-70
2022/08/21 12:39:19;;;;;;;1.42;0.82;;;22.50;99.90;;;;;;5026777;23;20049;-72
2022/08/21 12:41:55;;;;;;;;;;;22.50;99.90;;;;;;4999958;28;20070;-71
2022/08/21 12:44:28;;;;;;;3.58;0.95;;;22.50;99.90;;;;;;4899165;28;20102;-71
2022/08/21 12:47:03;;;;;;;2.75;0.93;;;22.50;99.90;;;;;;4993261;28;20041;-70
2022/08/21 12:49:43;;;;;;;3.83;1.40;;;22.40;99.90;;;;;;5011776;28;20109;-70
2022/08/21 12:52:37;;;;;;;3.20;0.82;;;22.40;99.90;;;;;;5000574;28;20376;-70
2022/08/21 12:55:03;;;;;;;3.10;0.77;;;22.40;99.90;;;;;;4904089;28;20050;-69
2022/08/21 12:57:30;;;;;;;2.05;1.05;;;22.40;99.90;;;;;;5010545;28;20037;-70
2022/08/21 13:00:01;;;;;;;6.05;1.10;;;22.40;99.90;;;;;;4921374;28;20296;-71
2022/08/21 13:02:37;;;;;;;2.83;1.05;;;22.40;99.90;;;;;;4867832;28;20447;-71
2022/08/21 13:05:05;;;;;;;;;;;22.40;99.90;;;;;;4897157;28;20370;-69
2022/08/21 13:07:38;;;;;;;2.30;0.95;;;22.50;99.90;;;;;;4849886;28;20300;-70
2022/08/21 13:10:29;;;;;;;7.65;1.90;;;22.50;99.90;;;;;;4921884;28;20037;-70
2022/08/21 13:13:04;;;;;;;5.25;1.20;;;22.50;99.90;;;;;;5009067;28;20459;-72